sensor_id;sensor_type;location;lat;lon;timestamp;temperature;humidity
13164;DHT22;6647;53.688;10.746;2023-05-07T00:00:17;9.30;1.00
13164;DHT22;6647;53.688;10.746;2023-05-07T00:01:39;9.30;1.00
13164;DHT22;6647;53.688;10.746;2023-05-07T00:03:00;9.30;1.00
13164;DHT22;6647;53.688;10.746;2023-05-07T00:04:21;9.30;1.00
13164;DHT22;6647;53.688;10.746;2023-05-07T00:05:43;9.30;1.00
13164;DHT22;6647;53.688;10.746;2023-05-07T00:07:04;9.30;1.00
13164;DHT22;6647;53.688;10.746;2023-05-07T00:08:24;9.40;1.00
13164;DHT22;6647;53.688;10.746;2023-05-07T00:09:45;9.40;1.00
13164;DHT22;6647;53.688;10.746;2023-05-07T00:11:06;9.40;1.00
13164;DHT22;6647;53.688;10.746;2023-05-07T00:12:27;9.40;1.00
13164;DHT22;6647;53.688;10.746;2023-05-07T00:13:48;9.40;1.00
13164;DHT22;6647;53.688;10.746;2023-05-07T00:15:09;9.40;1.00
13164;DHT22;6647;53.688;10.746;2023-05-07T00:16:30;9.40;1.00
13164;DHT22;6647;53.688;10.746;2023-05-07T00:17:51;9.30;1.00
13164;DHT22;6647;53.688;10.746;2023-05-07T00:19:12;9.40;1.00
13164;DHT22;6647;53.688;10.746;2023-05-07T00:20:33;9.40;1.00
13164;DHT22;6647;53.688;10.746;2023-05-07T00:21:54;9.40;1.00
13164;DHT22;6647;53.688;10.746;2023-05-07T00:23:16;9.40;1.00
13164;DHT22;6647;53.688;10.746;2023-05-07T00:24:37;9.40;1.00
13164;DHT22;6647;53.688;10.746;2023-05-07T00:25:58;9.30;1.00
13164;DHT22;6647;53.688;10.746;2023-05-07T00:27:18;9.30;1.00
13164;DHT22;6647;53.688;10.746;2023-05-07T00:28:39;9.30;1.00
13164;DHT22;6647;53.688;10.746;2023-05-07T00:30:00;9.30;1.00
13164;DHT22;6647;53.688;10.746;2023-05-07T00:31:21;9.30;1.00
13164;DHT22;6647;53.688;10.746;2023-05-07T00:32:42;9.30;1.00
13164;DHT22;6647;53.688;10.746;2023-05-07T00:34:06;9.30;1.00
13164;DHT22;6647;53.688;10.746;2023-05-07T00:35:27;9.30;1.00
13164;DHT22;6647;53.688;10.746;2023-05-07T00:36:48;9.30;1.00
13164;DHT22;6647;53.688;10.746;2023-05-07T00:38:09;9.30;1.00
13164;DHT22;6647;53.688;10.746;2023-05-07T00:39:30;9.30;1.00
13164;DHT22;6647;53.688;10.746;2023-05-07T00:40:51;9.30;1.00
13164;DHT22;6647;53.688;10.746;2023-05-07T00:42:12;9.30;1.00
13164;DHT22;6647;53.688;10.746;2023-05-07T00:43:33;9.30;1.00
13164;DHT22;6647;53.688;10.746;2023-05-07T00:44:54;9.30;1.00
13164;DHT22;6647;53.688;10.746;2023-05-07T00:46:15;9.30;1.00
13164;DHT22;6647;53.688;10.746;2023-05-07T00:47:36;9.20;1.00
13164;DHT22;6647;53.688;10.746;2023-05-07T00:48:57;9.20;1.00
13164;DHT22;6647;53.688;10.746;2023-05-07T00:50:19;9.20;1.00
13164;DHT22;6647;53.688;10.746;2023-05-07T00:51:40;9.20;1.00
13164;DHT22;6647;53.688;10.746;2023-05-07T00:53:01;9.20;1.00
13164;DHT22;6647;53.688;10.746;2023-05-07T00:54:23;9.20;1.00
13164;DHT22;6647;53.688;10.746;2023-05-07T00:55:44;9.20;1.00
13164;DHT22;6647;53.688;10.746;2023-05-07T00:57:05;9.20;1.00
13164;DHT22;6647;53.688;10.746;2023-05-07T00:58:27;9.20;1.00
13164;DHT22;6647;53.688;10.746;2023-05-07T00:59:48;9.20;1.00
13164;DHT22;6647;53.688;10.746;2023-05-07T01:01:09;9.30;1.00
13164;DHT22;6647;53.688;10.746;2023-05-07T01:02:30;9.30;1.00
13164;DHT22;6647;53.688;10.746;2023-05-07T01:03:51;9.30;1.00
13164;DHT22;6647;53.688;10.746;2023-05-07T01:05:14;9.30;1.00
13164;DHT22;6647;53.688;10.746;2023-05-07T01:06:36;9.30;1.00
13164;DHT22;6647;53.688;10.746;2023-05-07T01:07:57;9.30;1.00
13164;DHT22;6647;53.688;10.746;2023-05-07T01:09:19;9.30;1.00
13164;DHT22;6647;53.688;10.746;2023-05-07T01:10:41;9.30;1.00
13164;DHT22;6647;53.688;10.746;2023-05-07T01:12:04;9.30;1.00
13164;DHT22;6647;53.688;10.746;2023-05-07T01:13:25;9.30;1.00
13164;DHT22;6647;53.688;10.746;2023-05-07T01:14:46;9.30;1.00
13164;DHT22;6647;53.688;10.746;2023-05-07T01:16:08;9.20;1.00
13164;DHT22;6647;53.688;10.746;2023-05-07T01:17:34;9.20;1.00
13164;DHT22;6647;53.688;10.746;2023-05-07T01:18:55;9.20;1.00
13164;DHT22;6647;53.688;10.746;2023-05-07T01:20:16;9.20;1.00
13164;DHT22;6647;53.688;10.746;2023-05-07T01:21:38;9.20;1.00
13164;DHT22;6647;53.688;10.746;2023-05-07T01:23:00;9.20;1.00
13164;DHT22;6647;53.688;10.746;2023-05-07T01:24:22;9.20;1.00
13164;DHT22;6647;53.688;10.746;2023-05-07T01:25:42;9.20;1.00
13164;DHT22;6647;53.688;10.746;2023-05-07T01:27:04;9.20;1.00
13164;DHT22;6647;53.688;10.746;2023-05-07T01:28:25;9.30;1.00
13164;DHT22;6647;53.688;10.746;2023-05-07T01:29:46;9.30;1.00
13164;DHT22;6647;53.688;10.746;2023-05-07T01:31:08;9.30;1.00
13164;DHT22;6647;53.688;10.746;2023-05-07T01:33:57;9.20;1.00
13164;DHT22;6647;53.688;10.746;2023-05-07T01:35:24;9.20;1.00
13164;DHT22;6647;53.688;10.746;2023-05-07T01:36:46;9.20;1.00
13164;DHT22;6647;53.688;10.746;2023-05-07T01:38:08;9.20;1.00
13164;DHT22;6647;53.688;10.746;2023-05-07T01:39:29;9.20;1.00
13164;DHT22;6647;53.688;10.746;2023-05-07T01:40:50;9.20;1.00
13164;DHT22;6647;53.688;10.746;2023-05-07T01:42:12;9.20;1.00
13164;DHT22;6647;53.688;10.746;2023-05-07T01:43:33;9.20;1.00
13164;DHT22;6647;53.688;10.746;2023-05-07T01:44:54;9.20;1.00
13164;DHT22;6647;53.688;10.746;2023-05-07T01:46:15;9.20;1.00
13164;DHT22;6647;53.688;10.746;2023-05-07T01:47:37;9.20;1.00
13164;DHT22;6647;53.688;10.746;2023-05-07T01:48:58;9.20;1.00
13164;DHT22;6647;53.688;10.746;2023-05-07T01:50:20;9.20;1.00
13164;DHT22;6647;53.688;10.746;2023-05-07T01:51:41;9.20;1.00
13164;DHT22;6647;53.688;10.746;2023-05-07T01:53:03;9.10;1.00
13164;DHT22;6647;53.688;10.746;2023-05-07T01:54:27;9.10;1.00
13164;DHT22;6647;53.688;10.746;2023-05-07T01:55:48;9.10;1.00
13164;DHT22;6647;53.688;10.746;2023-05-07T01:57:09;9.10;1.00
13164;DHT22;6647;53.688;10.746;2023-05-07T01:58:30;9.20;1.00
13164;DHT22;6647;53.688;10.746;2023-05-07T01:59:51;9.20;1.00
13164;DHT22;6647;53.688;10.746;2023-05-07T02:01:13;9.20;1.00
13164;DHT22;6647;53.688;10.746;2023-05-07T02:02:34;9.10;1.00
13164;DHT22;6647;53.688;10.746;2023-05-07T02:03:55;9.10;1.00
13164;DHT22;6647;53.688;10.746;2023-05-07T02:05:16;9.10;1.00
13164;DHT22;6647;53.688;10.746;2023-05-07T02:06:37;9.20;1.00
13164;DHT22;6647;53.688;10.746;2023-05-07T02:07:58;9.10;1.00
13164;DHT22;6647;53.688;10.746;2023-05-07T02:09:19;9.10;1.00
13164;DHT22;6647;53.688;10.746;2023-05-07T02:10:40;9.10;1.00
13164;DHT22;6647;53.688;10.746;2023-05-07T02:12:01;9.10;1.00
13164;DHT22;6647;53.688;10.746;2023-05-07T02:13:22;9.10;1.00
13164;DHT22;6647;53.688;10.746;2023-05-07T02:14:45;9.10;1.00
13164;DHT22;6647;53.688;10.746;2023-05-07T02:16:06;9.20;1.00
13164;DHT22;6647;53.688;10.746;2023-05-07T02:17:27;9.20;1.00
13164;DHT22;6647;53.688;10.746;2023-05-07T02:18:48;9.10;1.00
13164;DHT22;6647;53.688;10.746;2023-05-07T02:20:09;9.10;1.00
13164;DHT22;6647;53.688;10.746;2023-05-07T02:21:33;9.10;1.00
13164;DHT22;6647;53.688;10.746;2023-05-07T02:22:54;9.10;1.00
13164;DHT22;6647;53.688;10.746;2023-05-07T02:24:15;9.10;1.00
13164;DHT22;6647;53.688;10.746;2023-05-07T02:25:36;9.10;1.00
13164;DHT22;6647;53.688;10.746;2023-05-07T02:26:57;9.10;1.00
13164;DHT22;6647;53.688;10.746;2023-05-07T02:28:18;9.10;1.00
13164;DHT22;6647;53.688;10.746;2023-05-07T02:29:38;9.10;1.00
13164;DHT22;6647;53.688;10.746;2023-05-07T02:31:00;9.10;1.00
13164;DHT22;6647;53.688;10.746;2023-05-07T02:32:21;9.10;1.00
13164;DHT22;6647;53.688;10.746;2023-05-07T02:33:43;9.10;1.00
13164;DHT22;6647;53.688;10.746;2023-05-07T02:35:06;9.10;1.00
13164;DHT22;6647;53.688;10.746;2023-05-07T02:36:27;9.00;1.00
13164;DHT22;6647;53.688;10.746;2023-05-07T02:37:49;9.10;1.00
13164;DHT22;6647;53.688;10.746;2023-05-07T02:39:10;9.10;1.00
13164;DHT22;6647;53.688;10.746;2023-05-07T02:40:31;9.10;1.00
13164;DHT22;6647;53.688;10.746;2023-05-07T02:41:54;9.10;1.00
13164;DHT22;6647;53.688;10.746;2023-05-07T02:43:15;9.10;1.00
13164;DHT22;6647;53.688;10.746;2023-05-07T02:44:36;9.10;1.00
13164;DHT22;6647;53.688;10.746;2023-05-07T02:46:04;9.10;1.00
13164;DHT22;6647;53.688;10.746;2023-05-07T02:47:25;9.00;1.00
13164;DHT22;6647;53.688;10.746;2023-05-07T02:48:49;9.10;1.00
13164;DHT22;6647;53.688;10.746;2023-05-07T02:50:10;9.10;1.00
13164;DHT22;6647;53.688;10.746;2023-05-07T02:51:31;9.10;1.00
13164;DHT22;6647;53.688;10.746;2023-05-07T02:52:52;9.10;1.00
13164;DHT22;6647;53.688;10.746;2023-05-07T02:54:13;9.10;1.00
13164;DHT22;6647;53.688;10.746;2023-05-07T02:55:33;9.10;1.00
13164;DHT22;6647;53.688;10.746;2023-05-07T02:56:54;9.10;1.00
13164;DHT22;6647;53.688;10.746;2023-05-07T02:58:15;9.10;1.00
13164;DHT22;6647;53.688;10.746;2023-05-07T02:59:36;9.10;1.00
13164;DHT22;6647;53.688;10.746;2023-05-07T03:00:57;9.20;1.00
13164;DHT22;6647;53.688;10.746;2023-05-07T03:02:18;9.20;1.00
13164;DHT22;6647;53.688;10.746;2023-05-07T03:03:39;9.20;1.00
13164;DHT22;6647;53.688;10.746;2023-05-07T03:05:00;9.20;1.00
13164;DHT22;6647;53.688;10.746;2023-05-07T03:06:22;9.20;1.00
13164;DHT22;6647;53.688;10.746;2023-05-07T03:07:43;9.20;1.00
13164;DHT22;6647;53.688;10.746;2023-05-07T03:09:05;9.20;1.00
13164;DHT22;6647;53.688;10.746;2023-05-07T03:10:26;9.20;1.00
13164;DHT22;6647;53.688;10.746;2023-05-07T03:11:47;9.20;1.00
13164;DHT22;6647;53.688;10.746;2023-05-07T03:13:08;9.20;1.00
13164;DHT22;6647;53.688;10.746;2023-05-07T03:14:29;9.20;1.00
13164;DHT22;6647;53.688;10.746;2023-05-07T03:15:50;9.20;1.00
13164;DHT22;6647;53.688;10.746;2023-05-07T03:17:11;9.20;1.00
13164;DHT22;6647;53.688;10.746;2023-05-07T03:18:32;9.20;1.00
13164;DHT22;6647;53.688;10.746;2023-05-07T03:19:53;9.20;1.00
13164;DHT22;6647;53.688;10.746;2023-05-07T03:21:14;9.20;1.00
13164;DHT22;6647;53.688;10.746;2023-05-07T03:22:35;9.10;1.00
13164;DHT22;6647;53.688;10.746;2023-05-07T03:23:56;9.20;1.00
13164;DHT22;6647;53.688;10.746;2023-05-07T03:25:17;9.20;1.00
13164;DHT22;6647;53.688;10.746;2023-05-07T03:26:37;9.20;1.00
13164;DHT22;6647;53.688;10.746;2023-05-07T03:27:58;9.20;1.00
13164;DHT22;6647;53.688;10.746;2023-05-07T03:29:19;9.10;1.00
13164;DHT22;6647;53.688;10.746;2023-05-07T03:30:40;9.10;1.00
13164;DHT22;6647;53.688;10.746;2023-05-07T03:32:01;9.10;1.00
13164;DHT22;6647;53.688;10.746;2023-05-07T03:33:22;9.10;1.00
13164;DHT22;6647;53.688;10.746;2023-05-07T03:34:43;9.10;1.00
13164;DHT22;6647;53.688;10.746;2023-05-07T03:36:04;9.10;1.00
13164;DHT22;6647;53.688;10.746;2023-05-07T03:37:25;9.00;1.00
13164;DHT22;6647;53.688;10.746;2023-05-07T03:38:46;9.00;1.00
13164;DHT22;6647;53.688;10.746;2023-05-07T03:40:07;9.00;1.00
13164;DHT22;6647;53.688;10.746;2023-05-07T03:41:30;9.00;1.00
13164;DHT22;6647;53.688;10.746;2023-05-07T03:42:51;9.00;1.00
13164;DHT22;6647;53.688;10.746;2023-05-07T03:44:12;9.00;1.00
13164;DHT22;6647;53.688;10.746;2023-05-07T03:45:33;9.00;1.00
13164;DHT22;6647;53.688;10.746;2023-05-07T03:46:54;9.00;1.00
13164;DHT22;6647;53.688;10.746;2023-05-07T03:48:15;9.00;1.00
13164;DHT22;6647;53.688;10.746;2023-05-07T03:49:36;9.00;1.00
13164;DHT22;6647;53.688;10.746;2023-05-07T03:50:58;9.00;1.00
13164;DHT22;6647;53.688;10.746;2023-05-07T03:52:19;9.10;1.00
13164;DHT22;6647;53.688;10.746;2023-05-07T03:53:44;9.10;1.00
13164;DHT22;6647;53.688;10.746;2023-05-07T03:55:05;9.10;1.00
13164;DHT22;6647;53.688;10.746;2023-05-07T03:56:26;9.00;1.00
13164;DHT22;6647;53.688;10.746;2023-05-07T03:57:48;9.00;1.00
13164;DHT22;6647;53.688;10.746;2023-05-07T03:59:09;9.10;1.00
13164;DHT22;6647;53.688;10.746;2023-05-07T04:00:30;9.10;1.00
13164;DHT22;6647;53.688;10.746;2023-05-07T04:01:54;9.10;1.00
13164;DHT22;6647;53.688;10.746;2023-05-07T04:03:15;9.10;1.00
13164;DHT22;6647;53.688;10.746;2023-05-07T04:04:36;9.10;1.00
13164;DHT22;6647;53.688;10.746;2023-05-07T04:05:56;9.10;1.00
13164;DHT22;6647;53.688;10.746;2023-05-07T04:07:17;9.10;1.00
13164;DHT22;6647;53.688;10.746;2023-05-07T04:08:38;9.10;1.00
13164;DHT22;6647;53.688;10.746;2023-05-07T04:09:59;9.20;1.00
13164;DHT22;6647;53.688;10.746;2023-05-07T04:11:20;9.20;1.00
13164;DHT22;6647;53.688;10.746;2023-05-07T04:12:41;9.10;1.00
13164;DHT22;6647;53.688;10.746;2023-05-07T04:14:01;9.10;1.00
13164;DHT22;6647;53.688;10.746;2023-05-07T04:15:23;9.10;1.00
13164;DHT22;6647;53.688;10.746;2023-05-07T04:16:44;9.10;1.00
13164;DHT22;6647;53.688;10.746;2023-05-07T04:18:05;9.10;1.00
13164;DHT22;6647;53.688;10.746;2023-05-07T04:19:26;9.20;1.00
13164;DHT22;6647;53.688;10.746;2023-05-07T04:20:50;9.20;1.00
13164;DHT22;6647;53.688;10.746;2023-05-07T04:22:11;9.20;1.00
13164;DHT22;6647;53.688;10.746;2023-05-07T04:23:32;9.20;1.00
13164;DHT22;6647;53.688;10.746;2023-05-07T04:24:53;9.20;1.00
13164;DHT22;6647;53.688;10.746;2023-05-07T04:26:15;9.20;1.00
13164;DHT22;6647;53.688;10.746;2023-05-07T04:27:36;9.20;1.00
13164;DHT22;6647;53.688;10.746;2023-05-07T04:28:58;9.20;1.00
13164;DHT22;6647;53.688;10.746;2023-05-07T04:30:19;9.20;1.00
13164;DHT22;6647;53.688;10.746;2023-05-07T04:31:40;9.20;1.00
13164;DHT22;6647;53.688;10.746;2023-05-07T04:33:01;9.20;1.00
13164;DHT22;6647;53.688;10.746;2023-05-07T04:34:22;9.20;1.00
13164;DHT22;6647;53.688;10.746;2023-05-07T04:35:43;9.20;1.00
13164;DHT22;6647;53.688;10.746;2023-05-07T04:37:04;9.20;1.00
13164;DHT22;6647;53.688;10.746;2023-05-07T04:38:25;9.30;1.00
13164;DHT22;6647;53.688;10.746;2023-05-07T04:39:46;9.30;1.00
13164;DHT22;6647;53.688;10.746;2023-05-07T04:41:08;9.30;1.00
13164;DHT22;6647;53.688;10.746;2023-05-07T04:42:29;9.30;1.00
13164;DHT22;6647;53.688;10.746;2023-05-07T04:43:50;9.30;1.00
13164;DHT22;6647;53.688;10.746;2023-05-07T04:45:12;9.30;1.00
13164;DHT22;6647;53.688;10.746;2023-05-07T04:46:33;9.30;1.00
13164;DHT22;6647;53.688;10.746;2023-05-07T04:47:54;9.30;1.00
13164;DHT22;6647;53.688;10.746;2023-05-07T04:49:14;9.30;1.00
13164;DHT22;6647;53.688;10.746;2023-05-07T04:50:36;9.30;1.00
13164;DHT22;6647;53.688;10.746;2023-05-07T04:51:57;9.30;1.00
13164;DHT22;6647;53.688;10.746;2023-05-07T04:53:18;9.30;1.00
13164;DHT22;6647;53.688;10.746;2023-05-07T04:54:39;9.30;1.00
13164;DHT22;6647;53.688;10.746;2023-05-07T04:56:00;9.20;1.00
13164;DHT22;6647;53.688;10.746;2023-05-07T04:57:21;9.20;1.00
13164;DHT22;6647;53.688;10.746;2023-05-07T04:58:41;9.20;1.00
13164;DHT22;6647;53.688;10.746;2023-05-07T05:00:03;9.20;1.00
13164;DHT22;6647;53.688;10.746;2023-05-07T05:01:24;9.20;1.00
13164;DHT22;6647;53.688;10.746;2023-05-07T05:02:46;9.20;1.00
13164;DHT22;6647;53.688;10.746;2023-05-07T05:04:06;9.20;1.00
13164;DHT22;6647;53.688;10.746;2023-05-07T05:05:27;9.20;1.00
13164;DHT22;6647;53.688;10.746;2023-05-07T05:06:48;9.20;1.00
13164;DHT22;6647;53.688;10.746;2023-05-07T05:08:09;9.20;1.00
13164;DHT22;6647;53.688;10.746;2023-05-07T05:09:30;9.20;1.00
13164;DHT22;6647;53.688;10.746;2023-05-07T05:10:51;9.20;1.00
13164;DHT22;6647;53.688;10.746;2023-05-07T05:12:12;9.30;1.00
13164;DHT22;6647;53.688;10.746;2023-05-07T05:13:32;9.20;1.00
13164;DHT22;6647;53.688;10.746;2023-05-07T05:14:54;9.30;1.00
13164;DHT22;6647;53.688;10.746;2023-05-07T05:16:15;9.30;1.00
13164;DHT22;6647;53.688;10.746;2023-05-07T05:17:36;9.30;1.00
13164;DHT22;6647;53.688;10.746;2023-05-07T05:18:57;9.30;1.00
13164;DHT22;6647;53.688;10.746;2023-05-07T05:20:18;9.30;1.00
13164;DHT22;6647;53.688;10.746;2023-05-07T05:21:39;9.20;1.00
13164;DHT22;6647;53.688;10.746;2023-05-07T05:23:00;9.30;1.00
13164;DHT22;6647;53.688;10.746;2023-05-07T05:24:21;9.30;1.00
13164;DHT22;6647;53.688;10.746;2023-05-07T05:25:41;9.30;1.00
13164;DHT22;6647;53.688;10.746;2023-05-07T05:27:02;9.30;1.00
13164;DHT22;6647;53.688;10.746;2023-05-07T05:28:23;9.30;1.00
13164;DHT22;6647;53.688;10.746;2023-05-07T05:29:44;9.30;1.00
13164;DHT22;6647;53.688;10.746;2023-05-07T05:31:05;9.30;1.00
13164;DHT22;6647;53.688;10.746;2023-05-07T05:32:26;9.30;1.00
13164;DHT22;6647;53.688;10.746;2023-05-07T05:33:47;9.30;1.00
13164;DHT22;6647;53.688;10.746;2023-05-07T05:35:08;9.30;1.00
13164;DHT22;6647;53.688;10.746;2023-05-07T05:36:29;9.30;1.00
13164;DHT22;6647;53.688;10.746;2023-05-07T05:37:51;9.30;1.00
13164;DHT22;6647;53.688;10.746;2023-05-07T05:39:12;9.30;1.00
13164;DHT22;6647;53.688;10.746;2023-05-07T05:40:33;9.20;1.00
13164;DHT22;6647;53.688;10.746;2023-05-07T05:41:54;9.20;1.00
13164;DHT22;6647;53.688;10.746;2023-05-07T05:43:15;9.20;1.00
13164;DHT22;6647;53.688;10.746;2023-05-07T05:44:36;9.20;1.00
13164;DHT22;6647;53.688;10.746;2023-05-07T05:45:57;9.20;1.00
13164;DHT22;6647;53.688;10.746;2023-05-07T05:47:18;9.30;1.00
13164;DHT22;6647;53.688;10.746;2023-05-07T05:48:39;9.30;1.00
13164;DHT22;6647;53.688;10.746;2023-05-07T05:49:59;9.30;1.00
13164;DHT22;6647;53.688;10.746;2023-05-07T05:51:21;9.30;1.00
13164;DHT22;6647;53.688;10.746;2023-05-07T05:52:42;9.30;1.00
13164;DHT22;6647;53.688;10.746;2023-05-07T05:54:03;9.30;1.00
13164;DHT22;6647;53.688;10.746;2023-05-07T05:55:25;9.40;1.00
13164;DHT22;6647;53.688;10.746;2023-05-07T05:56:46;9.40;1.00
13164;DHT22;6647;53.688;10.746;2023-05-07T05:58:07;9.40;1.00
13164;DHT22;6647;53.688;10.746;2023-05-07T05:59:28;9.40;1.00
13164;DHT22;6647;53.688;10.746;2023-05-07T06:00:49;9.40;1.00
13164;DHT22;6647;53.688;10.746;2023-05-07T06:02:12;9.40;1.00
13164;DHT22;6647;53.688;10.746;2023-05-07T06:03:33;9.40;1.00
13164;DHT22;6647;53.688;10.746;2023-05-07T06:04:54;9.40;1.00
13164;DHT22;6647;53.688;10.746;2023-05-07T06:06:15;9.40;1.00
13164;DHT22;6647;53.688;10.746;2023-05-07T06:07:36;9.40;1.00
13164;DHT22;6647;53.688;10.746;2023-05-07T06:08:57;9.40;1.00
13164;DHT22;6647;53.688;10.746;2023-05-07T06:10:18;9.50;1.00
13164;DHT22;6647;53.688;10.746;2023-05-07T06:11:39;9.50;1.00
13164;DHT22;6647;53.688;10.746;2023-05-07T06:13:01;9.50;1.00
13164;DHT22;6647;53.688;10.746;2023-05-07T06:14:22;9.50;1.00
13164;DHT22;6647;53.688;10.746;2023-05-07T06:15:43;9.50;1.00
13164;DHT22;6647;53.688;10.746;2023-05-07T06:17:04;9.40;1.00
13164;DHT22;6647;53.688;10.746;2023-05-07T06:18:25;9.40;1.00
13164;DHT22;6647;53.688;10.746;2023-05-07T06:19:46;9.40;1.00
13164;DHT22;6647;53.688;10.746;2023-05-07T06:21:07;9.50;1.00
13164;DHT22;6647;53.688;10.746;2023-05-07T06:22:28;9.50;1.00
13164;DHT22;6647;53.688;10.746;2023-05-07T06:23:49;9.50;1.00
13164;DHT22;6647;53.688;10.746;2023-05-07T06:25:10;9.50;1.00
13164;DHT22;6647;53.688;10.746;2023-05-07T06:26:31;9.50;1.00
13164;DHT22;6647;53.688;10.746;2023-05-07T06:27:52;9.50;1.00
13164;DHT22;6647;53.688;10.746;2023-05-07T06:29:13;9.50;1.00
13164;DHT22;6647;53.688;10.746;2023-05-07T06:30:34;9.50;1.00
13164;DHT22;6647;53.688;10.746;2023-05-07T06:31:55;9.50;1.00
13164;DHT22;6647;53.688;10.746;2023-05-07T06:33:16;9.60;1.00
13164;DHT22;6647;53.688;10.746;2023-05-07T06:34:37;9.50;1.00
13164;DHT22;6647;53.688;10.746;2023-05-07T06:35:58;9.60;1.00
13164;DHT22;6647;53.688;10.746;2023-05-07T06:37:19;9.60;1.00
13164;DHT22;6647;53.688;10.746;2023-05-07T06:38:40;9.60;1.00
13164;DHT22;6647;53.688;10.746;2023-05-07T06:40:01;9.60;1.00
13164;DHT22;6647;53.688;10.746;2023-05-07T06:41:22;9.60;1.00
13164;DHT22;6647;53.688;10.746;2023-05-07T06:42:43;9.60;1.00
13164;DHT22;6647;53.688;10.746;2023-05-07T06:44:04;9.50;1.00
13164;DHT22;6647;53.688;10.746;2023-05-07T06:45:25;9.60;1.00
13164;DHT22;6647;53.688;10.746;2023-05-07T06:46:46;9.60;1.00
13164;DHT22;6647;53.688;10.746;2023-05-07T06:48:07;9.60;1.00
13164;DHT22;6647;53.688;10.746;2023-05-07T06:49:28;9.60;1.00
13164;DHT22;6647;53.688;10.746;2023-05-07T06:50:49;9.60;1.00
13164;DHT22;6647;53.688;10.746;2023-05-07T06:52:10;9.60;1.00
13164;DHT22;6647;53.688;10.746;2023-05-07T06:53:30;9.70;1.00
13164;DHT22;6647;53.688;10.746;2023-05-07T06:54:51;9.70;1.00
13164;DHT22;6647;53.688;10.746;2023-05-07T06:56:12;9.70;1.00
13164;DHT22;6647;53.688;10.746;2023-05-07T06:57:33;9.70;1.00
13164;DHT22;6647;53.688;10.746;2023-05-07T06:58:54;9.70;1.00
13164;DHT22;6647;53.688;10.746;2023-05-07T07:00:15;9.70;1.00
13164;DHT22;6647;53.688;10.746;2023-05-07T07:01:36;9.70;1.00
13164;DHT22;6647;53.688;10.746;2023-05-07T07:02:57;9.70;1.00
13164;DHT22;6647;53.688;10.746;2023-05-07T07:04:18;9.70;1.00
13164;DHT22;6647;53.688;10.746;2023-05-07T07:05:41;9.70;1.00
13164;DHT22;6647;53.688;10.746;2023-05-07T07:07:02;9.70;1.00
13164;DHT22;6647;53.688;10.746;2023-05-07T07:08:23;9.70;1.00
13164;DHT22;6647;53.688;10.746;2023-05-07T07:09:43;9.70;1.00
13164;DHT22;6647;53.688;10.746;2023-05-07T07:11:05;9.70;1.00
13164;DHT22;6647;53.688;10.746;2023-05-07T07:12:26;9.80;1.00
13164;DHT22;6647;53.688;10.746;2023-05-07T07:13:47;9.80;1.00
13164;DHT22;6647;53.688;10.746;2023-05-07T07:15:08;9.80;1.00
13164;DHT22;6647;53.688;10.746;2023-05-07T07:16:29;9.80;1.00
13164;DHT22;6647;53.688;10.746;2023-05-07T07:17:50;9.80;1.00
13164;DHT22;6647;53.688;10.746;2023-05-07T07:19:11;9.80;1.00
13164;DHT22;6647;53.688;10.746;2023-05-07T07:20:32;9.80;1.00
13164;DHT22;6647;53.688;10.746;2023-05-07T07:21:53;9.80;1.00
13164;DHT22;6647;53.688;10.746;2023-05-07T07:23:14;9.80;1.00
13164;DHT22;6647;53.688;10.746;2023-05-07T07:24:35;9.80;1.00
13164;DHT22;6647;53.688;10.746;2023-05-07T07:25:56;9.80;1.00
13164;DHT22;6647;53.688;10.746;2023-05-07T07:27:17;9.80;1.00
13164;DHT22;6647;53.688;10.746;2023-05-07T07:28:46;9.80;1.00
13164;DHT22;6647;53.688;10.746;2023-05-07T07:30:08;9.80;1.00
13164;DHT22;6647;53.688;10.746;2023-05-07T07:31:28;9.90;1.00
13164;DHT22;6647;53.688;10.746;2023-05-07T07:32:49;9.90;1.00
13164;DHT22;6647;53.688;10.746;2023-05-07T07:34:10;9.90;1.00
13164;DHT22;6647;53.688;10.746;2023-05-07T07:35:34;9.90;1.00
13164;DHT22;6647;53.688;10.746;2023-05-07T07:36:55;9.90;1.00
13164;DHT22;6647;53.688;10.746;2023-05-07T07:38:16;10.00;1.00
13164;DHT22;6647;53.688;10.746;2023-05-07T07:39:37;10.00;1.00
13164;DHT22;6647;53.688;10.746;2023-05-07T07:40:58;10.00;1.00
13164;DHT22;6647;53.688;10.746;2023-05-07T07:42:19;10.00;1.00
13164;DHT22;6647;53.688;10.746;2023-05-07T07:43:40;10.00;1.00
13164;DHT22;6647;53.688;10.746;2023-05-07T07:45:01;10.00;1.00
13164;DHT22;6647;53.688;10.746;2023-05-07T07:46:21;10.10;1.00
13164;DHT22;6647;53.688;10.746;2023-05-07T07:47:42;10.00;1.00
13164;DHT22;6647;53.688;10.746;2023-05-07T07:49:03;10.10;1.00
13164;DHT22;6647;53.688;10.746;2023-05-07T07:50:24;10.10;1.00
13164;DHT22;6647;53.688;10.746;2023-05-07T07:51:45;10.10;1.00
13164;DHT22;6647;53.688;10.746;2023-05-07T07:53:06;10.10;1.00
13164;DHT22;6647;53.688;10.746;2023-05-07T07:54:27;10.10;1.00
13164;DHT22;6647;53.688;10.746;2023-05-07T07:55:49;10.10;1.00
13164;DHT22;6647;53.688;10.746;2023-05-07T07:57:09;10.10;1.00
13164;DHT22;6647;53.688;10.746;2023-05-07T07:58:30;10.20;1.00
13164;DHT22;6647;53.688;10.746;2023-05-07T07:59:51;10.20;1.00
13164;DHT22;6647;53.688;10.746;2023-05-07T08:01:12;10.20;1.00
13164;DHT22;6647;53.688;10.746;2023-05-07T08:02:33;10.10;1.00
13164;DHT22;6647;53.688;10.746;2023-05-07T08:03:54;10.10;1.00
13164;DHT22;6647;53.688;10.746;2023-05-07T08:05:15;10.20;1.00
13164;DHT22;6647;53.688;10.746;2023-05-07T08:06:36;10.20;1.00
13164;DHT22;6647;53.688;10.746;2023-05-07T08:07:57;10.20;1.00
13164;DHT22;6647;53.688;10.746;2023-05-07T08:09:19;10.20;1.00
13164;DHT22;6647;53.688;10.746;2023-05-07T08:10:39;10.20;1.00
13164;DHT22;6647;53.688;10.746;2023-05-07T08:12:00;10.20;1.00
13164;DHT22;6647;53.688;10.746;2023-05-07T08:13:22;10.20;1.00
13164;DHT22;6647;53.688;10.746;2023-05-07T08:14:42;10.20;1.00
13164;DHT22;6647;53.688;10.746;2023-05-07T08:16:05;10.20;1.00
13164;DHT22;6647;53.688;10.746;2023-05-07T08:17:26;10.30;1.00
13164;DHT22;6647;53.688;10.746;2023-05-07T08:18:50;10.30;1.00
13164;DHT22;6647;53.688;10.746;2023-05-07T08:20:10;10.30;1.00
13164;DHT22;6647;53.688;10.746;2023-05-07T08:21:31;10.30;1.00
13164;DHT22;6647;53.688;10.746;2023-05-07T08:22:52;10.30;1.00
13164;DHT22;6647;53.688;10.746;2023-05-07T08:24:14;10.30;1.00
13164;DHT22;6647;53.688;10.746;2023-05-07T08:25:36;10.30;1.00
13164;DHT22;6647;53.688;10.746;2023-05-07T08:26:58;10.40;1.00
13164;DHT22;6647;53.688;10.746;2023-05-07T08:28:19;10.40;1.00
13164;DHT22;6647;53.688;10.746;2023-05-07T08:29:42;10.40;1.00
13164;DHT22;6647;53.688;10.746;2023-05-07T08:31:02;10.40;1.00
13164;DHT22;6647;53.688;10.746;2023-05-07T08:32:23;10.40;1.00
13164;DHT22;6647;53.688;10.746;2023-05-07T08:33:45;10.40;1.00
13164;DHT22;6647;53.688;10.746;2023-05-07T08:35:06;10.50;1.00
13164;DHT22;6647;53.688;10.746;2023-05-07T08:36:27;10.50;1.00
13164;DHT22;6647;53.688;10.746;2023-05-07T08:37:49;10.50;1.00
13164;DHT22;6647;53.688;10.746;2023-05-07T08:39:10;10.60;1.00
13164;DHT22;6647;53.688;10.746;2023-05-07T08:40:37;10.60;1.00
13164;DHT22;6647;53.688;10.746;2023-05-07T08:42:00;10.70;1.00
13164;DHT22;6647;53.688;10.746;2023-05-07T08:43:26;10.70;1.00
13164;DHT22;6647;53.688;10.746;2023-05-07T08:44:48;10.70;1.00
13164;DHT22;6647;53.688;10.746;2023-05-07T08:46:17;10.80;1.00
13164;DHT22;6647;53.688;10.746;2023-05-07T08:47:46;10.80;1.00
13164;DHT22;6647;53.688;10.746;2023-05-07T08:49:08;10.80;1.00
13164;DHT22;6647;53.688;10.746;2023-05-07T08:50:29;10.90;1.00